N35 weather

Punxsutawney Municipal Airport
Punxsutawney, Pennsylvania, United States

Public forecast

Using degrees Fahrenheit for public forecast. Weather courtesy of forecast.io.

Closest aviation weather report (METAR) to Punxsutawney Municipal Airport

Closest report is DuBois Regional Airport, 12.8 nm (23.7 km) N. Retrieved 2019/11/18 08:30 UTC (0 seconds ago):

KDUJ 180830Z AUTO 12009KT 10SM OVC009 M01/M03 A2983 RMK AO2 T10111033

Closest aviation forecast (TAF) to Punxsutawney Municipal Airport

Closest forecast is DuBois Regional Airport, 12.8 nm (23.7 km) N. Retrieved 2019/11/18 06:40 UTC (2 hours ago):

TAF KDUJ 180537Z 1806/1906 11008KT P6SM FEW150 BKN250 FM181000 12005KT P6SM BKN015 FM182100 30004KT P6SM BKN035